Time;durP1;ratioP1;P1;durP2;ratioP2;P2;SDS_P1;SDS_P2;PMS_P1;PMS_P2;Temp;Humidity;BMP_temperature;BMP_pressure;BME280_temperature;BME280_humidity;BME280_pressure;Samples;Min_cycle;Max_cycle;Signal;HPM_P1;HPM_P2
2023/04/25 00:02:16;;;;;;;3.22;2.80;;;13.70;99.90;;;;;;5114418;28;20649;-72
2023/04/25 00:04:43;;;;;;;4.00;2.88;;;13.70;99.90;;;;;;5113578;28;20237;-73
2023/04/25 00:07:10;;;;;;;4.55;2.80;;;13.70;99.90;;;;;;5114504;28;20224;-72
2023/04/25 00:09:38;;;;;;;6.00;3.55;;;13.70;99.90;;;;;;5114350;28;20236;-72
2023/04/25 00:12:06;;;;;;;3.55;2.78;;;13.80;99.90;;;;;;5113960;28;20275;-72
2023/04/25 00:14:35;;;;;;;2.95;2.60;;;13.80;99.90;;;;;;5114234;28;20289;-73
2023/04/25 00:17:02;;;;;;;4.50;2.53;;;13.80;99.90;;;;;;5113728;28;20197;-74
2023/04/25 00:19:29;;;;;;;6.00;2.88;;;13.80;99.90;;;;;;5114101;28;20220;-74
2023/04/25 00:21:56;;;;;;;6.55;2.72;;;13.70;99.90;;;;;;5113982;28;20632;-73
2023/04/25 00:24:23;;;;;;;3.72;3.00;;;13.70;99.90;;;;;;5113942;28;20232;-76
2023/04/25 00:26:51;;;;;;;3.92;3.20;;;13.70;99.90;;;;;;5113509;28;20243;-77
2023/04/25 00:29:18;;;;;;;4.85;2.65;;;13.80;99.90;;;;;;5113940;28;20226;-80
2023/04/25 00:31:45;;;;;;;5.15;3.10;;;13.80;99.90;;;;;;5113476;28;20240;-80
2023/04/25 00:34:12;;;;;;;4.05;3.00;;;13.90;99.90;;;;;;5113732;28;20236;-79
2023/04/25 00:36:39;;;;;;;3.63;3.13;;;13.80;99.90;;;;;;5114283;28;20285;-79
2023/04/25 00:39:06;;;;;;;3.45;3.15;;;13.80;99.90;;;;;;5113479;28;20660;-77
2023/04/25 00:41:34;;;;;;;3.67;2.78;;;13.80;99.90;;;;;;5113674;28;20550;-77
2023/04/25 00:44:03;;;;;;;4.15;3.17;;;13.80;99.90;;;;;;5113264;28;20249;-78
2023/04/25 00:46:30;;;;;;;5.85;3.20;;;13.80;99.90;;;;;;5113557;28;20205;-73
2023/04/25 00:48:57;;;;;;;4.25;3.50;;;13.80;99.90;;;;;;5113055;28;20249;-75
2023/04/25 00:51:26;;;;;;;5.15;2.80;;;13.80;99.90;;;;;;5113483;28;20232;-73
2023/04/25 00:53:53;;;;;;;3.63;2.67;;;13.80;99.90;;;;;;5111495;28;20336;-73
2023/04/25 00:56:21;;;;;;;3.10;2.35;;;13.80;99.90;;;;;;5113425;28;20278;-73
2023/04/25 00:58:49;;;;;;;2.78;2.17;;;13.80;99.90;;;;;;5112984;28;20232;-74
2023/04/25 01:01:17;;;;;;;3.22;2.92;;;13.80;99.90;;;;;;5113284;28;20197;-74
2023/04/25 01:03:47;;;;;;;3.03;2.72;;;13.80;99.90;;;;;;5112755;28;20236;-73
2023/04/25 01:06:14;;;;;;;4.90;2.72;;;13.80;99.90;;;;;;5113232;28;20239;-75
2023/04/25 01:08:41;;;;;;;2.85;2.55;;;13.80;99.90;;;;;;5112714;28;20232;-75
2023/04/25 01:11:08;;;;;;;2.78;2.30;;;13.80;99.90;;;;;;5113268;28;20661;-77
2023/04/25 01:13:36;;;;;;;2.25;2.03;;;13.90;99.90;;;;;;5113115;28;20268;-74
2023/04/25 01:16:03;;;;;;;3.13;2.10;;;13.90;99.90;;;;;;5112640;28;20251;-75
2023/04/25 01:18:32;;;;;;;4.40;2.20;;;13.90;99.90;;;;;;5113081;28;20232;-79
2023/04/25 01:21:06;;;;;;;4.57;2.03;;;13.90;99.90;;;;;;5112470;28;20680;-80
2023/04/25 01:23:33;;;;;;;2.47;1.90;;;13.80;99.90;;;;;;5112572;28;20240;-76
2023/04/25 01:26:00;;;;;;;2.80;1.80;;;13.80;99.90;;;;;;5112325;28;20629;-76
2023/04/25 01:28:28;;;;;;;1.77;1.63;;;13.90;99.90;;;;;;5112721;28;20223;-80
2023/04/25 01:30:55;;;;;;;1.50;1.40;;;13.80;1.00;;;;;;5112461;28;20243;-80
2023/04/25 01:33:22;;;;;;;2.92;1.17;;;13.80;1.00;;;;;;5112725;28;20313;-80
2023/04/25 01:35:49;;;;;;;1.75;1.60;;;13.90;1.00;;;;;;5112079;28;20239;-81
2023/04/25 01:38:18;;;;;;;0.80;0.80;;;13.90;1.00;;;;;;5112658;28;20562;-79
2023/04/25 01:40:47;;;;;;;1.40;1.20;;;13.80;1.00;;;;;;5111749;28;20247;-79
2023/04/25 01:43:14;;;;;;;1.52;1.17;;;13.80;1.00;;;;;;5112622;28;20205;-81
2023/04/25 01:45:41;;;;;;;1.38;0.95;;;13.80;1.00;;;;;;5112382;28;20283;-75
2023/04/25 01:48:09;;;;;;;1.70;0.85;;;13.80;1.00;;;;;;5112807;28;20233;-78
2023/04/25 01:50:36;;;;;;;2.22;1.05;;;13.80;1.00;;;;;;5112344;28;20243;-81
2023/04/25 01:53:03;;;;;;;0.80;0.50;;;13.80;1.00;;;;;;5111666;28;20722;-78
2023/04/25 01:55:31;;;;;;;1.50;0.50;;;13.80;1.00;;;;;;5112194;28;20740;-79
2023/04/25 01:57:59;;;;;;;0.50;0.50;;;13.80;1.00;;;;;;5111645;28;20692;-78
2023/04/25 02:00:26;;;;;;;1.92;0.80;;;13.80;1.00;;;;;;5112203;28;20207;-77
2023/04/25 02:02:53;;;;;;;1.80;0.98;;;13.80;1.00;;;;;;5111755;28;20212;-77
2023/04/25 02:05:21;;;;;;;1.63;0.43;;;13.80;1.00;;;;;;5111585;28;20232;-77
2023/04/25 02:07:48;;;;;;;0.65;0.50;;;13.80;1.00;;;;;;5111545;28;20200;-77
2023/04/25 02:10:15;;;;;;;0.77;0.60;;;13.80;1.00;;;;;;5111772;28;20702;-77
2023/04/25 02:12:44;;;;;;;1.50;0.60;;;13.80;1.00;;;;;;5111449;28;20240;-77
2023/04/25 02:15:11;;;;;;;0.60;0.32;;;13.80;1.00;;;;;;5111913;28;20224;-77
2023/04/25 02:17:39;;;;;;;0.50;0.50;;;13.80;1.00;;;;;;5111998;28;20220;-77
2023/04/25 02:20:07;;;;;;;1.05;0.30;;;13.80;1.00;;;;;;5111650;28;20209;-78
2023/04/25 02:22:35;;;;;;;2.22;0.70;;;13.80;1.00;;;;;;5112118;28;20200;-80
2023/04/25 02:25:04;;;;;;;0.30;0.30;;;13.80;1.00;;;;;;5111594;28;20212;-79
2023/04/25 02:27:31;;;;;;;1.27;0.60;;;13.80;1.00;;;;;;5111557;28;20197;-74
2023/04/25 02:29:59;;;;;;;0.38;0.38;;;13.70;1.00;;;;;;5111247;28;20232;-75
2023/04/25 02:32:26;;;;;;;0.52;0.52;;;13.70;1.00;;;;;;5111445;28;20293;-74
2023/04/25 02:34:53;;;;;;;0.57;0.40;;;13.70;1.00;;;;;;5110990;28;20640;-75
2023/04/25 02:37:20;;;;;;;0.93;0.30;;;13.70;1.00;;;;;;5111794;28;20239;-75
2023/04/25 02:39:47;;;;;;;0.55;0.40;;;13.80;1.00;;;;;;5111158;28;20629;-75
2023/04/25 02:42:14;;;;;;;0.40;0.38;;;13.70;1.00;;;;;;5111570;28;20241;-75
2023/04/25 02:44:41;;;;;;;0.95;0.55;;;13.70;1.00;;;;;;5111005;28;20236;-75
2023/04/25 02:47:09;;;;;;;0.20;0.20;;;13.70;1.00;;;;;;5111597;28;20207;-75
2023/04/25 02:49:36;;;;;;;0.40;0.40;;;13.80;1.00;;;;;;5111365;28;20627;-74
2023/04/25 02:52:03;;;;;;;0.40;0.40;;;13.70;1.00;;;;;;5111057;28;20240;-74
2023/04/25 02:54:31;;;;;;;0.40;0.38;;;13.70;1.00;;;;;;5111248;28;20267;-75
2023/04/25 02:56:58;;;;;;;0.93;0.40;;;13.80;1.00;;;;;;5110909;28;20635;-75
2023/04/25 02:59:25;;;;;;;1.23;1.15;;;13.70;1.00;;;;;;5111275;28;20201;-75
2023/04/25 03:01:52;;;;;;;1.00;0.30;;;13.80;1.00;;;;;;5110708;28;20231;-76
2023/04/25 03:04:20;;;;;;;0.30;0.30;;;13.70;1.00;;;;;;5110879;28;20675;-75
2023/04/25 03:06:47;;;;;;;0.45;0.40;;;13.80;1.00;;;;;;5111037;28;20207;-75
2023/04/25 03:09:14;;;;;;;0.20;0.20;;;13.80;1.00;;;;;;5111287;28;20236;-76
2023/04/25 03:11:41;;;;;;;0.20;0.20;;;13.80;99.90;;;;;;5110561;28;20265;-74
2023/04/25 03:14:08;;;;;;;0.32;0.32;;;13.80;1.00;;;;;;5111351;28;20291;-75
2023/04/25 03:16:35;;;;;;;0.40;0.40;;;13.80;99.90;;;;;;5113632;28;20341;-75
2023/04/25 03:19:02;;;;;;;1.00;0.50;;;13.80;99.90;;;;;;5114900;28;20207;-76
2023/04/25 03:21:31;;;;;;;0.40;0.40;;;13.80;99.90;;;;;;5115155;28;20236;-76
2023/04/25 03:23:58;;;;;;;1.60;0.30;;;13.80;99.90;;;;;;5114789;28;20562;-76
2023/04/25 03:26:25;;;;;;;0.40;0.40;;;13.80;1.00;;;;;;5115028;28;20235;-76
2023/04/25 03:28:52;;;;;;;0.38;0.38;;;13.80;1.00;;;;;;5114381;28;20250;-76
2023/04/25 03:31:19;;;;;;;0.30;0.30;;;13.80;1.00;;;;;;5115143;28;20257;-76
2023/04/25 03:33:46;;;;;;;0.40;0.30;;;13.80;1.00;;;;;;5114486;28;20274;-76
2023/04/25 03:36:13;;;;;;;0.50;0.45;;;13.70;1.00;;;;;;5114898;28;20247;-76
2023/04/25 03:38:41;;;;;;;0.45;0.40;;;13.70;1.00;;;;;;5115076;28;20201;-75
2023/04/25 03:41:08;;;;;;;0.65;0.40;;;13.70;1.00;;;;;;5115196;28;20211;-75
2023/04/25 03:43:35;;;;;;;2.65;0.70;;;13.80;1.00;;;;;;5115074;28;20253;-76
2023/04/25 03:46:02;;;;;;;0.30;0.30;;;13.70;1.00;;;;;;5114338;28;20240;-76
2023/04/25 03:48:29;;;;;;;0.50;0.38;;;13.70;1.00;;;;;;5114682;28;20251;-75
2023/04/25 03:50:56;;;;;;;0.40;0.38;;;13.70;1.00;;;;;;5114390;28;20702;-76
2023/04/25 03:53:23;;;;;;;1.67;0.63;;;13.70;1.00;;;;;;5114610;28;20313;-77
2023/04/25 03:55:52;;;;;;;0.50;0.50;;;13.70;1.00;;;;;;5114185;28;20243;-76
2023/04/25 03:58:19;;;;;;;1.77;0.40;;;13.70;1.00;;;;;;5114508;28;20232;-76
2023/04/25 04:00:46;;;;;;;0.80;0.50;;;13.70;1.00;;;;;;5113983;28;20247;-74
2023/04/25 04:03:13;;;;;;;0.90;0.75;;;13.70;1.00;;;;;;5109844;27;20236;-75
2023/04/25 04:05:40;;;;;;;0.93;0.77;;;13.70;1.00;;;;;;5113616;28;20236;-74
2023/04/25 04:08:07;;;;;;;0.73;0.40;;;13.70;1.00;;;;;;5113449;28;20208;-74
2023/04/25 04:10:34;;;;;;;1.35;0.70;;;13.70;1.00;;;;;;5113646;28;20229;-73
2023/04/25 04:13:02;;;;;;;0.52;0.40;;;13.70;1.00;;;;;;5112830;28;20692;-74
2023/04/25 04:15:32;;;;;;;0.88;0.65;;;13.70;1.00;;;;;;5113131;28;20208;-74
2023/04/25 04:18:02;;;;;;;0.57;0.52;;;13.70;1.00;;;;;;5113009;28;20209;-74
2023/04/25 04:20:29;;;;;;;0.60;0.60;;;13.70;1.00;;;;;;5113406;28;20227;-75
2023/04/25 04:22:56;;;;;;;0.50;0.40;;;13.60;1.00;;;;;;5112819;28;20221;-74
2023/04/25 04:25:24;;;;;;;1.02;0.82;;;13.70;1.00;;;;;;5113306;28;20236;-74
2023/04/25 04:27:54;;;;;;;0.80;0.60;;;13.70;1.00;;;;;;5112533;28;20212;-74
2023/04/25 04:30:23;;;;;;;1.52;0.45;;;13.60;1.00;;;;;;5113098;28;20243;-75
2023/04/25 04:32:51;;;;;;;0.50;0.50;;;13.70;1.00;;;;;;5112582;28;20576;-73
2023/04/25 04:35:18;;;;;;;2.80;0.77;;;13.60;1.00;;;;;;5113228;28;20296;-74
2023/04/25 04:37:45;;;;;;;0.50;0.50;;;13.70;1.00;;;;;;5112495;28;20240;-73
2023/04/25 04:40:15;;;;;;;0.65;0.65;;;13.70;1.00;;;;;;5109284;28;20216;-73
2023/04/25 04:42:42;;;;;;;1.13;0.70;;;13.70;1.00;;;;;;5112525;28;20567;-73
2023/04/25 04:45:10;;;;;;;0.50;0.47;;;13.70;1.00;;;;;;5112890;28;20240;-74
2023/04/25 04:47:39;;;;;;;1.52;0.40;;;13.70;1.00;;;;;;5113024;28;20228;-74
2023/04/25 04:50:08;;;;;;;1.15;0.60;;;13.70;1.00;;;;;;5112711;28;20256;-74
2023/04/25 04:52:35;;;;;;;0.90;0.60;;;13.70;1.00;;;;;;5113000;28;20207;-74
2023/04/25 04:55:03;;;;;;;0.85;0.63;;;13.80;1.00;;;;;;5111588;28;20273;-76
2023/04/25 04:57:30;;;;;;;1.67;0.63;;;13.70;1.00;;;;;;5110972;28;20211;-74
2023/04/25 04:59:57;;;;;;;0.63;0.52;;;13.80;1.00;;;;;;5112507;28;20211;-74
2023/04/25 05:02:24;;;;;;;0.60;0.40;;;13.80;1.00;;;;;;5111961;28;20237;-73
2023/04/25 05:04:53;;;;;;;0.70;0.70;;;13.80;1.00;;;;;;5112237;28;20215;-74
2023/04/25 05:07:20;;;;;;;0.90;0.90;;;13.80;1.00;;;;;;5104487;28;20232;-73
2023/04/25 05:09:47;;;;;;;2.60;0.73;;;13.80;1.00;;;;;;5112059;28;20201;-73
2023/04/25 05:12:13;;;;;;;4.05;0.77;;;13.80;1.00;;;;;;5111898;28;20313;-73
2023/04/25 05:14:40;;;;;;;1.08;0.73;;;13.80;1.00;;;;;;5111658;28;20272;-73
2023/04/25 05:17:08;;;;;;;0.73;0.70;;;13.80;1.00;;;;;;5112519;28;20646;-73
2023/04/25 05:19:35;;;;;;;5.07;2.08;;;13.80;1.00;;;;;;5112167;28;20204;-72
2023/04/25 05:22:03;;;;;;;3.28;1.30;;;13.80;1.00;;;;;;5111966;28;20232;-73
2023/04/25 05:24:31;;;;;;;0.90;0.80;;;13.90;1.00;;;;;;5111264;28;20244;-73
2023/04/25 05:26:58;;;;;;;2.78;0.80;;;13.90;1.00;;;;;;5112868;28;20201;-74
2023/04/25 05:29:25;;;;;;;0.65;0.50;;;13.90;1.00;;;;;;5112273;28;20243;-73
2023/04/25 05:31:52;;;;;;;1.35;1.20;;;13.90;1.00;;;;;;5110397;28;20262;-74
2023/04/25 05:34:19;;;;;;;1.67;0.68;;;14.00;1.00;;;;;;5112829;28;20233;-77
2023/04/25 05:36:48;;;;;;;2.03;1.30;;;14.00;1.00;;;;;;5111990;27;20233;-80
2023/04/25 05:39:17;;;;;;;0.70;0.68;;;14.00;1.00;;;;;;5111693;28;20201;-81
2023/04/25 05:41:44;;;;;;;0.70;0.60;;;14.00;1.00;;;;;;5112438;28;20200;-80
2023/04/25 05:44:11;;;;;;;0.70;0.70;;;14.10;1.00;;;;;;5113074;28;20211;-88
2023/04/25 05:46:38;;;;;;;3.10;0.82;;;14.00;1.00;;;;;;5112868;28;20203;-87
2023/04/25 05:49:05;;;;;;;3.08;1.20;;;14.10;1.00;;;;;;5112680;28;20201;-84
2023/04/25 05:51:32;;;;;;;1.13;1.02;;;14.10;1.00;;;;;;5112094;28;20200;-85
2023/04/25 05:53:59;;;;;;;4.30;1.55;;;14.10;1.00;;;;;;5110945;28;20315;-80
2023/04/25 05:56:27;;;;;;;0.65;0.65;;;14.20;1.00;;;;;;5112311;28;20208;-83
2023/04/25 05:58:54;;;;;;;1.00;0.90;;;14.20;1.00;;;;;;5112433;28;20232;-88
2023/04/25 06:01:22;;;;;;;0.80;0.80;;;14.20;1.00;;;;;;5112210;28;20287;-78
2023/04/25 06:03:51;;;;;;;0.80;0.80;;;14.20;1.00;;;;;;5113069;28;20212;-77
2023/04/25 06:06:18;;;;;;;1.02;0.90;;;14.20;1.00;;;;;;5112442;28;20231;-83
2023/04/25 06:08:45;;;;;;;0.80;0.80;;;14.30;1.00;;;;;;5111792;28;20271;-82
2023/04/25 06:11:11;;;;;;;0.88;0.85;;;14.30;1.00;;;;;;5111729;27;20250;-78
2023/04/25 06:13:40;;;;;;;2.42;0.90;;;14.30;1.00;;;;;;5111305;28;20248;-79
2023/04/25 06:16:07;;;;;;;2.05;0.77;;;14.30;1.00;;;;;;5111681;28;20692;-79
2023/04/25 06:18:34;;;;;;;2.08;1.02;;;14.30;1.00;;;;;;5091232;28;20586;-81
2023/04/25 06:21:01;;;;;;;1.67;0.98;;;14.30;1.00;;;;;;5091599;28;20229;-79
2023/04/25 06:23:28;;;;;;;0.68;0.65;;;14.40;1.00;;;;;;5104385;28;20233;-79
2023/04/25 06:25:55;;;;;;;1.52;1.42;;;14.40;1.00;;;;;;5111052;28;20205;-74
2023/04/25 06:28:23;;;;;;;2.33;1.10;;;14.50;99.90;;;;;;5110836;28;20761;-75
2023/04/25 06:30:51;;;;;;;1.38;1.17;;;14.50;99.90;;;;;;5108306;28;20205;-75
2023/04/25 06:33:18;;;;;;;1.42;1.02;;;14.60;99.90;;;;;;5110688;28;20250;-75
2023/04/25 06:35:45;;;;;;;1.92;1.33;;;14.70;99.90;;;;;;5110086;28;20731;-75
2023/04/25 06:38:12;;;;;;;1.23;0.55;;;14.90;99.90;;;;;;5108775;28;20204;-75
2023/04/25 06:40:39;;;;;;;1.17;0.68;;;15.10;99.90;;;;;;5109905;27;20208;-78
2023/04/25 06:43:06;;;;;;;1.85;0.50;;;15.20;99.90;;;;;;5103074;28;20228;-75
2023/04/25 06:45:33;;;;;;;1.10;1.00;;;15.30;99.90;;;;;;5107177;28;20201;-75
2023/04/25 06:48:01;;;;;;;0.77;0.77;;;15.40;99.90;;;;;;5103288;28;20244;-74
2023/04/25 06:50:28;;;;;;;2.47;0.60;;;15.40;99.90;;;;;;5106669;28;20296;-78
2023/04/25 06:52:55;;;;;;;2.30;1.27;;;15.40;99.90;;;;;;5110317;28;20240;-75
2023/04/25 06:55:22;;;;;;;0.80;0.73;;;15.40;99.90;;;;;;5110001;28;20256;-74
2023/04/25 06:57:49;;;;;;;0.60;0.60;;;15.40;99.90;;;;;;5110194;28;20236;-74
2023/04/25 07:00:17;;;;;;;0.80;0.70;;;15.40;99.90;;;;;;5110606;28;20300;-73
2023/04/25 07:02:44;;;;;;;2.67;0.57;;;15.30;99.90;;;;;;5110467;28;20213;-74
2023/04/25 07:05:12;;;;;;;0.68;0.63;;;15.20;99.90;;;;;;5110670;28;20204;-72
2023/04/25 07:07:39;;;;;;;1.63;1.00;;;15.20;99.90;;;;;;5106950;28;20293;-74
2023/04/25 07:10:06;;;;;;;2.25;0.52;;;15.20;99.90;;;;;;5109542;28;20258;-74
2023/04/25 07:12:33;;;;;;;1.77;0.70;;;15.20;99.90;;;;;;5111859;28;20262;-72
2023/04/25 07:15:05;;;;;;;1.27;0.65;;;15.10;99.90;;;;;;5101730;28;20272;-74
2023/04/25 07:17:33;;;;;;;0.63;0.63;;;15.10;99.90;;;;;;5109752;28;20259;-73
2023/04/25 07:20:00;;;;;;;1.02;0.70;;;15.20;99.90;;;;;;5109954;28;20596;-74
2023/04/25 07:22:28;;;;;;;1.52;0.90;;;15.20;99.90;;;;;;5108964;28;20209;-74
2023/04/25 07:24:55;;;;;;;2.70;1.15;;;15.20;99.90;;;;;;5110495;28;20236;-75
2023/04/25 07:27:22;;;;;;;0.80;0.80;;;15.10;99.90;;;;;;5108964;28;20263;-74
2023/04/25 07:29:49;;;;;;;1.77;0.65;;;15.00;99.90;;;;;;5110761;28;20266;-84
2023/04/25 07:32:16;;;;;;;0.82;0.50;;;14.50;99.90;;;;;;5110185;28;20694;-75
2023/04/25 07:34:43;;;;;;;0.70;0.35;;;14.00;99.90;;;;;;5102089;28;20285;-76
2023/04/25 07:37:10;;;;;;;2.63;0.45;;;13.60;99.90;;;;;;5110246;28;20257;-76
2023/04/25 07:39:38;;;;;;;0.52;0.40;;;13.50;99.90;;;;;;5110272;28;20249;-76
2023/04/25 07:42:07;;;;;;;2.30;0.50;;;13.50;99.90;;;;;;5110287;28;20244;-75
2023/04/25 07:44:38;;;;;;;1.00;0.68;;;13.70;99.90;;;;;;5109859;28;20300;-77
2023/04/25 07:47:06;;;;;;;0.82;0.50;;;13.50;99.90;;;;;;5109932;28;20249;-74
2023/04/25 07:49:34;;;;;;;0.70;0.70;;;13.60;99.90;;;;;;5109496;28;20630;-75
2023/04/25 07:52:01;;;;;;;2.45;0.80;;;13.60;99.90;;;;;;5110186;28;20201;-77
2023/04/25 07:54:28;;;;;;;1.35;0.82;;;13.50;99.90;;;;;;5109966;28;20264;-75
2023/04/25 07:56:57;;;;;;;2.78;0.70;;;13.50;99.90;;;;;;5109751;28;20204;-74
2023/04/25 07:59:24;;;;;;;0.88;0.70;;;13.50;99.90;;;;;;5109933;28;20205;-74
2023/04/25 08:01:51;;;;;;;2.35;0.77;;;13.60;99.90;;;;;;5110611;28;20244;-77
2023/04/25 08:04:18;;;;;;;1.90;0.80;;;13.40;99.90;;;;;;5110068;28;20237;-73
2023/04/25 08:06:45;;;;;;;0.60;0.60;;;13.40;99.90;;;;;;5113608;28;20232;-74
2023/04/25 08:09:12;;;;;;;0.75;0.70;;;13.40;99.90;;;;;;5113879;28;20240;-73
2023/04/25 08:11:39;;;;;;;1.90;0.50;;;13.40;99.90;;;;;;5113204;28;20216;-74
2023/04/25 08:14:07;;;;;;;0.95;0.82;;;13.30;99.90;;;;;;5113283;28;20558;-73
2023/04/25 08:16:34;;;;;;;1.13;0.57;;;13.10;99.90;;;;;;5113317;28;20293;-73
2023/04/25 08:19:02;;;;;;;1.40;0.85;;;13.20;99.90;;;;;;5113323;28;20235;-73
2023/04/25 08:21:28;;;;;;;0.75;0.57;;;13.30;99.90;;;;;;5112245;28;20205;-73
2023/04/25 08:23:56;;;;;;;0.50;0.47;;;13.30;99.90;;;;;;5113136;28;20212;-73
2023/04/25 08:26:23;;;;;;;4.00;0.65;;;13.10;99.90;;;;;;5113099;28;20243;-73
2023/04/25 08:28:50;;;;;;;1.98;1.75;;;13.30;99.90;;;;;;5112870;28;20248;-74
2023/04/25 08:31:18;;;;;;;1.67;0.60;;;13.60;99.90;;;;;;5113442;28;20707;-73
2023/04/25 08:33:45;;;;;;;1.15;0.70;;;13.70;99.90;;;;;;5112843;28;20201;-73
2023/04/25 08:36:12;;;;;;;0.75;0.70;;;13.50;99.90;;;;;;5113131;28;20236;-72
2023/04/25 08:38:39;;;;;;;1.45;0.47;;;13.60;99.90;;;;;;5112491;28;20252;-72
2023/04/25 08:41:07;;;;;;;3.60;0.63;;;13.50;99.90;;;;;;5112982;28;20258;-74
2023/04/25 08:43:36;;;;;;;0.40;0.35;;;13.50;99.90;;;;;;5112338;28;20701;-74
2023/04/25 08:46:03;;;;;;;1.85;0.95;;;13.50;99.90;;;;;;5113249;28;20236;-72
2023/04/25 08:48:34;;;;;;;1.13;0.45;;;13.50;99.90;;;;;;5112133;28;20680;-74
2023/04/25 08:51:03;;;;;;;1.55;0.50;;;13.50;99.90;;;;;;5110059;28;20192;-74
2023/04/25 08:53:32;;;;;;;0.63;0.32;;;13.30;99.90;;;;;;5112187;28;20586;-75
2023/04/25 08:56:01;;;;;;;2.15;0.40;;;13.30;99.90;;;;;;5109605;28;20260;-74
2023/04/25 08:58:29;;;;;;;3.20;0.50;;;13.40;99.90;;;;;;5112519;28;20211;-73
2023/04/25 09:00:56;;;;;;;3.45;0.47;;;13.40;99.90;;;;;;5112245;28;20232;-73
2023/04/25 09:03:23;;;;;;;0.85;0.65;;;13.50;99.90;;;;;;5112035;28;20240;-73
2023/04/25 09:05:52;;;;;;;0.47;0.25;;;13.70;99.90;;;;;;5112918;28;20244;-75
2023/04/25 09:08:19;;;;;;;4.20;1.10;;;13.30;99.90;;;;;;5112916;28;20299;-75
2023/04/25 09:10:46;;;;;;;0.43;0.43;;;13.40;99.90;;;;;;5111987;28;20651;-75
2023/04/25 09:13:14;;;;;;;1.05;0.40;;;13.50;99.90;;;;;;5111992;28;20250;-75
2023/04/25 09:15:52;;;;;;;1.95;0.73;;;13.50;99.90;;;;;;5111911;28;20232;-76
2023/04/25 09:18:26;;;;;;;0.60;0.60;;;13.60;99.90;;;;;;5112746;28;20204;-76
2023/04/25 09:20:55;;;;;;;0.88;0.60;;;13.60;99.90;;;;;;5111993;28;20212;-76
2023/04/25 09:23:23;;;;;;;0.93;0.60;;;13.90;99.90;;;;;;5111891;28;20240;-76
2023/04/25 09:25:51;;;;;;;1.63;0.68;;;13.80;99.90;;;;;;5112292;28;20226;-75
2023/04/25 09:28:25;;;;;;;1.48;0.50;;;13.50;99.90;;;;;;5112408;28;20243;-76
2023/04/25 09:30:56;;;;;;;0.85;0.85;;;13.50;99.90;;;;;;5111214;28;20692;-77
2023/04/25 09:33:28;;;;;;;0.70;0.65;;;13.70;99.90;;;;;;5111338;28;20232;-77
2023/04/25 09:36:03;;;;;;;1.58;0.82;;;13.80;99.90;;;;;;5112184;28;20695;-75
2023/04/25 09:38:31;;;;;;;2.75;1.08;;;13.90;99.90;;;;;;5111625;28;20200;-75
2023/04/25 09:40:59;;;;;;;1.90;1.10;;;14.00;99.90;;;;;;5108737;28;20252;-76
2023/04/25 09:43:26;;;;;;;0.93;0.73;;;13.70;99.90;;;;;;5111921;28;20312;-77
2023/04/25 09:45:58;;;;;;;2.55;1.08;;;13.60;1.00;;;;;;5111870;28;20208;-74
2023/04/25 09:48:27;;;;;;;1.55;0.75;;;13.80;1.00;;;;;;5111594;28;20204;-74
2023/04/25 09:51:07;;;;;;;1.27;0.85;;;13.50;1.00;;;;;;5111726;28;20209;-76
2023/04/25 09:53:35;;;;;;;1.20;0.60;;;13.40;1.00;;;;;;5111204;28;20236;-77
2023/04/25 09:56:05;;;;;;;1.73;0.95;;;13.50;1.00;;;;;;5111796;28;20236;-76
2023/04/25 09:58:32;;;;;;;1.23;0.98;;;13.30;1.00;;;;;;5110872;28;20207;-74
2023/04/25 10:01:02;;;;;;;1.85;0.75;;;13.30;1.00;;;;;;5111462;28;20243;-74
2023/04/25 10:03:31;;;;;;;0.60;0.60;;;13.40;1.00;;;;;;5111185;28;20231;-74
2023/04/25 10:06:02;;;;;;;0.80;0.80;;;13.30;99.90;;;;;;5111643;28;20209;-74
2023/04/25 10:08:33;;;;;;;1.25;1.15;;;13.50;99.90;;;;;;5110935;28;20239;-74
2023/04/25 10:11:03;;;;;;;1.67;0.60;;;13.60;99.90;;;;;;5107958;28;20221;-75
2023/04/25 10:13:30;;;;;;;0.85;0.82;;;13.40;99.90;;;;;;5110730;28;20771;-74
2023/04/25 10:15:58;;;;;;;2.15;1.20;;;13.30;99.90;;;;;;5107523;28;20236;-74
2023/04/25 10:18:26;;;;;;;1.00;1.00;;;13.30;99.90;;;;;;5111012;28;20205;-75
2023/04/25 10:20:55;;;;;;;1.30;1.15;;;13.40;99.90;;;;;;5111219;28;20256;-74
2023/04/25 10:23:22;;;;;;;1.80;0.90;;;13.60;99.90;;;;;;5110798;28;20236;-74
2023/04/25 10:25:52;;;;;;;1.80;1.40;;;14.10;99.90;;;;;;5110988;28;20807;-75
2023/04/25 10:28:19;;;;;;;2.22;0.98;;;14.50;99.90;;;;;;5111399;28;20240;-75
2023/04/25 10:30:59;;;;;;;7.82;1.58;;;14.30;99.90;;;;;;5110459;28;20207;-76
2023/04/25 10:33:34;;;;;;;1.75;1.30;;;14.40;99.90;;;;;;5110506;28;20232;-76
2023/04/25 10:36:13;;;;;;;1.55;0.90;;;14.50;99.90;;;;;;5107861;28;20334;-76
2023/04/25 10:38:40;;;;;;;0.70;0.70;;;14.50;99.90;;;;;;5110192;28;20721;-76
2023/04/25 10:41:09;;;;;;;1.15;0.95;;;14.30;99.90;;;;;;5110852;28;20240;-77
2023/04/25 10:43:41;;;;;;;1.05;0.95;;;14.30;99.90;;;;;;5110215;28;20244;-77
2023/04/25 10:46:15;;;;;;;1.10;0.60;;;14.40;99.90;;;;;;5110889;28;20240;-75
2023/04/25 10:48:50;;;;;;;0.88;0.88;;;14.30;99.90;;;;;;5110053;28;20706;-75
2023/04/25 10:51:19;;;;;;;1.55;0.88;;;14.20;99.90;;;;;;5111028;28;20200;-74
2023/04/25 10:53:46;;;;;;;0.57;0.57;;;14.20;99.90;;;;;;5110647;28;20231;-74
2023/04/25 10:56:18;;;;;;;1.90;0.90;;;14.30;99.90;;;;;;5110611;28;20236;-76
2023/04/25 10:58:46;;;;;;;3.13;1.00;;;14.50;99.90;;;;;;5109717;28;20211;-75
2023/04/25 11:01:14;;;;;;;1.17;1.08;;;14.50;99.90;;;;;;5109771;28;20236;-75
2023/04/25 11:03:45;;;;;;;2.65;1.15;;;14.50;99.90;;;;;;5109878;28;20211;-76
2023/04/25 11:06:22;;;;;;;1.10;1.00;;;14.40;99.90;;;;;;5110700;28;20204;-76
2023/04/25 11:08:51;;;;;;;3.05;0.95;;;14.40;99.90;;;;;;5110895;28;20403;-76
2023/04/25 11:11:20;;;;;;;1.17;1.08;;;14.70;99.90;;;;;;5110826;28;20236;-76
2023/04/25 11:13:49;;;;;;;1.50;1.08;;;15.10;99.90;;;;;;5110440;28;20257;-75
2023/04/25 11:16:16;;;;;;;1.35;1.20;;;14.90;99.90;;;;;;5110677;28;20256;-76
2023/04/25 11:18:44;;;;;;;1.02;0.93;;;14.70;99.90;;;;;;5109782;28;20247;-73
2023/04/25 11:21:11;;;;;;;1.38;0.88;;;14.70;99.90;;;;;;5110433;28;20561;-73
2023/04/25 11:23:38;;;;;;;1.38;1.27;;;14.70;99.90;;;;;;5109925;28;20232;-74
2023/04/25 11:26:05;;;;;;;8.15;2.55;;;15.10;99.90;;;;;;5110318;28;20204;-75
2023/04/25 11:28:33;;;;;;;1.08;0.95;;;15.30;99.90;;;;;;5109762;28;20255;-74
2023/04/25 11:31:00;;;;;;;1.00;0.90;;;15.30;99.90;;;;;;5110348;28;20698;-77
2023/04/25 11:33:27;;;;;;;1.15;0.63;;;15.40;99.90;;;;;;5109970;28;20289;-77
2023/04/25 11:35:56;;;;;;;0.50;0.50;;;15.30;99.90;;;;;;5110382;28;20232;-77
2023/04/25 11:38:23;;;;;;;0.73;0.73;;;14.80;99.90;;;;;;5113205;28;20261;-76
2023/04/25 11:40:53;;;;;;;0.60;0.60;;;14.80;99.90;;;;;;5114783;28;20236;-76
2023/04/25 11:43:22;;;;;;;0.80;0.80;;;14.80;99.90;;;;;;5114280;28;20277;-74
2023/04/25 11:45:52;;;;;;;2.67;0.93;;;14.90;99.90;;;;;;5113682;28;20243;-74
2023/04/25 11:48:20;;;;;;;2.95;1.70;;;15.10;99.90;;;;;;5114434;28;20287;-76
2023/04/25 11:50:47;;;;;;;1.38;1.17;;;14.90;99.90;;;;;;5112856;28;20281;-74
2023/04/25 11:53:13;;;;;;;1.92;1.40;;;14.90;99.90;;;;;;5114070;28;20240;-74
2023/04/25 11:55:40;;;;;;;1.23;1.13;;;15.10;99.90;;;;;;5113275;28;20873;-75
2023/04/25 11:58:08;;;;;;;0.77;0.77;;;14.80;99.90;;;;;;5113823;28;20302;-75
2023/04/25 12:00:35;;;;;;;0.90;0.73;;;15.10;99.90;;;;;;5113450;28;20206;-76
2023/04/25 12:03:04;;;;;;;3.22;1.55;;;15.70;99.90;;;;;;5114020;28;20215;-76
2023/04/25 12:05:33;;;;;;;1.85;1.75;;;15.90;99.90;;;;;;5113119;28;20247;-75
2023/04/25 12:08:11;;;;;;;1.23;1.13;;;15.90;99.90;;;;;;5114034;28;20201;-75
2023/04/25 12:10:40;;;;;;;1.05;0.80;;;15.70;99.90;;;;;;5112736;28;20668;-74
2023/04/25 12:13:21;;;;;;;1.45;1.35;;;15.40;99.90;;;;;;5113775;28;20300;-74
2023/04/25 12:15:48;;;;;;;1.88;1.30;;;15.00;99.90;;;;;;5112628;28;20248;-76
2023/04/25 12:18:20;;;;;;;2.15;1.33;;;15.20;99.90;;;;;;5114247;28;20211;-76
2023/04/25 12:20:47;;;;;;;1.20;1.10;;;15.60;99.90;;;;;;5114074;28;20201;-76
2023/04/25 12:23:14;;;;;;;1.45;1.35;;;15.80;99.90;;;;;;5113812;28;20244;-76
2023/04/25 12:25:43;;;;;;;4.30;1.50;;;16.00;99.90;;;;;;5110828;28;20295;-76
2023/04/25 12:28:19;;;;;;;2.05;1.13;;;16.00;99.90;;;;;;5113274;28;21132;-77
2023/04/25 12:31:00;;;;;;;2.33;2.13;;;16.20;99.90;;;;;;5113178;28;20197;-74
2023/04/25 12:33:30;;;;;;;3.15;2.03;;;16.30;99.90;;;;;;5113028;28;20201;-74
2023/04/25 12:35:58;;;;;;;1.90;1.45;;;16.20;99.90;;;;;;5109745;28;20228;-74
2023/04/25 12:38:27;;;;;;;1.90;1.70;;;16.00;99.90;;;;;;5112268;28;20205;-75
2023/04/25 12:40:54;;;;;;;5.95;1.98;;;15.90;99.90;;;;;;5112591;28;20257;-73
2023/04/25 12:43:21;;;;;;;1.38;1.27;;;15.70;99.90;;;;;;5112856;28;20255;-73
2023/04/25 12:45:49;;;;;;;1.80;1.45;;;15.70;99.90;;;;;;5111536;28;20204;-74
2023/04/25 12:48:16;;;;;;;1.30;1.05;;;15.80;99.90;;;;;;5112962;28;20227;-74
2023/04/25 12:50:47;;;;;;;1.77;1.67;;;15.70;99.90;;;;;;5112146;28;20237;-76
2023/04/25 12:53:14;;;;;;;2.25;1.70;;;15.70;99.90;;;;;;5112666;28;20205;-73
2023/04/25 12:55:41;;;;;;;1.83;1.30;;;16.00;99.90;;;;;;5111439;28;20740;-73